Time;durP1;ratioP1;P1;durP2;ratioP2;P2;SDS_P1;SDS_P2;PMS_P1;PMS_P2;Temp;Humidity;BMP_temperature;BMP_pressure;BME280_temperature;BME280_humidity;BME280_pressure;Samples;Min_cycle;Max_cycle;Signal;HPM_P1;HPM_P2
2021/01/23 00:02:43;;;;;;;;;27.40;25.00;;;;;12.56;44.30;97179.72;6184200;28;126647;-59
2021/01/23 00:05:46;;;;;;;;;18.40;17.40;;;;;12.13;46.65;97121.78;6184329;28;125139;-59
2021/01/23 00:08:47;;;;;;;;;22.00;19.00;;;;;12.51;46.86;97147.34;6184483;28;124485;-60
2021/01/23 00:11:49;;;;;;;;;22.00;21.25;;;;;12.42;46.83;97130.06;6184786;28;124678;-59
2021/01/23 00:14:51;;;;;;;;;18.40;17.00;;;;;12.73;47.46;97161.28;6184755;28;128035;-60
2021/01/23 00:17:52;;;;;;;;;17.25;16.25;;;;;12.89;46.60;97157.44;6184755;28;126686;-59
2021/01/23 00:20:54;;;;;;;;;17.00;14.00;;;;;12.96;46.50;97154.41;6184287;28;126441;-60
2021/01/23 00:23:56;;;;;;;;;17.00;15.40;;;;;12.96;46.81;97154.41;6184290;28;126155;-59
2021/01/23 00:26:57;;;;;;;;;15.50;12.00;;;;;12.99;47.04;97145.75;6184097;28;127025;-59
2021/01/23 00:29:59;;;;;;;;;12.00;12.00;;;;;12.80;47.14;97105.03;6184973;28;126706;-59
2021/01/23 00:33:01;;;;;;;;;15.80;14.60;;;;;12.95;46.02;97123.84;6198024;28;127182;-59
2021/01/23 00:36:03;;;;;;;;;12.40;11.60;;;;;13.23;46.49;97149.44;6208651;28;125433;-60
2021/01/23 00:39:06;;;;;;;;;12.25;12.00;;;;;13.34;46.30;97142.06;6208725;28;125210;-60
2021/01/23 00:42:08;;;;;;;;;13.00;11.00;;;;;13.29;46.37;97153.69;6208422;28;125938;-59
2021/01/23 00:45:10;;;;;;;;;10.00;9.00;;;;;13.11;47.24;97157.06;6190289;28;126726;-59
2021/01/23 00:48:13;;;;;;;;;12.00;10.00;;;;;13.01;47.24;97154.38;6208757;28;124964;-60
2021/01/23 00:51:14;;;;;;;;;11.00;10.00;;;;;12.93;47.47;97157.69;6207637;28;125049;-60
2021/01/23 00:54:16;;;;;;;;;11.00;10.40;;;;;13.04;47.17;97156.56;6208137;28;126001;-60
2021/01/23 00:57:18;;;;;;;;;12.00;11.00;;;;;13.32;46.51;97155.03;6185247;28;126932;-60
2021/01/23 01:00:21;;;;;;;;;11.00;9.25;;;;;13.49;46.19;97151.97;6165644;28;125494;-60
2021/01/23 01:03:22;;;;;;;;;11.00;11.00;;;;;13.51;45.95;97149.75;6165841;28;125155;-60
2021/01/23 01:06:34;;;;;;;;;11.80;10.00;;;;;13.49;45.74;97151.97;6164643;28;124892;-60
2021/01/23 01:09:35;;;;;;;;;11.50;11.50;;;;;13.20;46.42;97149.16;6168076;28;126241;-60
2021/01/23 01:12:37;;;;;;;;;12.00;10.25;;;;;13.30;46.08;97135.56;6208366;28;124553;-60
2021/01/23 01:15:38;;;;;;;;;13.00;12.25;;;;;13.30;45.88;97135.56;6206632;28;127192;-59
2021/01/23 01:18:40;;;;;;;;;12.80;10.00;;;;;13.20;45.98;97132.91;6165719;28;125300;-59
2021/01/23 01:21:42;;;;;;;;;11.40;11.00;;;;;13.14;46.08;97124.06;6184197;28;127019;-59
2021/01/23 01:24:43;;;;;;;;;12.00;11.20;;;;;12.99;46.25;97126.81;6182976;28;127422;-60
2021/01/23 01:27:45;;;;;;;;;12.60;11.60;;;;;12.84;46.85;97124.19;6181853;28;126305;-60
2021/01/23 01:30:46;;;;;;;;;11.40;10.00;;;;;12.66;46.29;97076.97;6191489;28;125422;-60
2021/01/23 01:33:48;;;;;;;;;11.00;10.00;;;;;12.68;46.79;97115.34;6205929;28;127889;-59
2021/01/23 01:36:49;;;;;;;;;8.80;8.00;;;;;12.83;46.53;97109.88;6205982;28;125602;-60
2021/01/23 01:39:51;;;;;;;;;10.60;10.00;;;;;12.84;46.19;97111.50;6206716;28;125478;-60
2021/01/23 01:42:52;;;;;;;;;8.60;8.00;;;;;12.47;47.23;97098.41;6208173;28;128163;-59
2021/01/23 01:45:54;;;;;;;;;8.00;7.67;;;;;12.37;46.70;97051.72;6207588;28;124341;-60
2021/01/23 01:48:59;;;;;;;;;8.00;7.80;;;;;12.69;46.80;97103.47;6207642;28;125367;-59
2021/01/23 01:52:00;;;;;;;;;10.00;8.40;;;;;12.69;46.84;97102.66;6208317;28;126170;-59
2021/01/23 01:55:02;;;;;;;;;9.00;8.00;;;;;12.54;46.62;97052.97;6207406;28;126967;-60
2021/01/23 01:58:05;;;;;;;;;9.33;7.33;;;;;12.86;46.53;97097.66;6208511;28;123850;-59
2021/01/23 02:01:07;;;;;;;;;9.00;8.00;;;;;12.38;46.72;97032.53;6207570;28;126767;-59
2021/01/23 02:04:42;;;;;;;;;11.00;10.60;;;;;12.92;46.79;97101.97;6185457;28;126737;-60
2021/01/23 02:07:53;;;;;;;;;9.00;8.50;;;;;12.99;46.44;97103.28;6186409;28;125917;-59
2021/01/23 02:11:30;;;;;;;;;9.00;8.00;;;;;12.82;47.17;97093.91;6187893;28;127145;-58
2021/01/23 02:14:57;;;;;;;;;9.00;8.00;;;;;12.67;47.75;97089.41;6118880;28;126238;-59
2021/01/23 02:18:05;;;;;;;;;9.50;8.00;;;;;12.33;48.43;97056.88;6168159;28;123755;-60
2021/01/23 02:21:35;;;;;;;;;8.00;8.00;;;;;12.44;48.30;97079.25;6186741;28;125658;-60
2021/01/23 02:24:37;;;;;;;;;9.60;9.00;;;;;12.24;48.89;97071.22;6150515;28;127110;-59
2021/01/23 02:28:03;;;;;;;;;11.00;10.00;;;;;12.31;48.93;97063.66;6186177;28;127280;-60
2021/01/23 02:31:13;;;;;;;;;6.60;6.60;;;;;12.09;49.15;97026.19;6200016;28;126533;-60
2021/01/23 02:34:19;;;;;;;;;9.00;9.00;;;;;12.36;49.13;97055.53;6211623;28;124652;-60
2021/01/23 02:37:21;;;;;;;;;10.40;10.00;;;;;12.21;49.12;97052.88;6192230;28;125948;-60
2021/01/23 02:40:22;;;;;;;;;10.00;9.60;;;;;12.51;48.69;97060.84;6186453;28;126615;-60
2021/01/23 02:43:24;;;;;;;;;9.00;9.00;;;;;12.22;48.38;97003.19;6186805;28;125474;-60
2021/01/23 02:46:25;;;;;;;;;10.00;9.00;;;;;12.68;48.23;97057.78;6192268;28;126801;-60
2021/01/23 02:49:27;;;;;;;;;9.75;9.75;;;;;12.65;48.16;97045.63;6211240;28;127087;-60
2021/01/23 02:53:02;;;;;;;;;11.00;10.75;;;;;12.86;47.35;97049.00;6194049;28;123393;-60
2021/01/23 02:56:14;;;;;;;;;12.60;11.00;;;;;12.74;47.69;97037.72;6210702;28;125691;-60
2021/01/23 02:59:16;;;;;;;;;10.60;9.60;;;;;12.76;47.91;97044.47;6211204;28;126248;-60
2021/01/23 03:02:20;;;;;;;;;12.40;12.40;;;;;12.90;47.88;97047.38;6209489;28;125302;-60
2021/01/23 03:05:24;;;;;;;;;11.20;10.00;;;;;12.95;47.61;97045.41;6208657;28;126746;-60
2021/01/23 03:08:25;;;;;;;;;13.00;11.40;;;;;13.03;47.32;97038.59;6204321;28;128007;-60
2021/01/23 03:11:27;;;;;;;;;12.60;11.00;;;;;13.11;46.91;97042.59;6166672;28;127865;-59
2021/01/23 03:14:28;;;;;;;;;11.00;10.25;;;;;13.06;46.86;97023.69;6183721;28;127744;-60
2021/01/23 03:17:31;;;;;;;;;12.80;11.00;;;;;12.97;47.31;97037.84;6184892;28;127123;-60
2021/01/23 03:20:32;;;;;;;;;13.00;12.00;;;;;12.95;47.71;97039.22;6185258;28;124041;-59
2021/01/23 03:23:34;;;;;;;;;11.00;10.80;;;;;12.88;47.75;97042.22;6167948;28;126946;-60
2021/01/23 03:26:36;;;;;;;;;13.40;12.40;;;;;12.89;47.67;97043.03;6184745;28;125709;-60
2021/01/23 03:29:37;;;;;;;;;12.25;12.00;;;;;12.68;48.34;97041.53;6185487;28;128799;-60
2021/01/23 03:32:39;;;;;;;;;11.50;11.00;;;;;12.38;48.92;97040.63;6184105;28;126726;-60
2021/01/23 03:35:40;;;;;;;;;11.80;10.80;;;;;12.56;48.48;97031.06;6185081;28;126583;-60
2021/01/23 03:38:42;;;;;;;;;12.00;11.00;;;;;12.49;48.66;97028.69;6185021;28;126917;-60
2021/01/23 03:41:43;;;;;;;;;15.00;14.00;;;;;12.47;48.34;97017.34;6203276;28;125375;-60
2021/01/23 03:44:45;;;;;;;;;14.00;13.00;;;;;12.35;48.29;96978.25;6209429;28;124040;-60
2021/01/23 03:47:47;;;;;;;;;11.25;10.00;;;;;12.85;47.69;97029.25;6209192;28;126551;-59
2021/01/23 03:50:49;;;;;;;;;11.50;11.00;;;;;12.99;47.34;97024.84;6210124;28;127385;-60
2021/01/23 03:53:50;;;;;;;;;11.00;11.00;;;;;13.14;47.00;97025.84;6209202;28;125927;-60
2021/01/23 03:56:52;;;;;;;;;14.00;12.00;;;;;13.29;46.59;97031.13;6209848;28;127696;-60
2021/01/23 03:59:53;;;;;;;;;11.75;9.75;;;;;13.25;46.71;97033.56;6209366;28;124802;-60
2021/01/23 04:02:55;;;;;;;;;13.00;12.00;;;;;13.20;46.79;97022.00;6208890;28;126813;-60
2021/01/23 04:05:57;;;;;;;;;15.20;13.20;;;;;13.14;46.92;97015.03;6208861;28;125335;-60
2021/01/23 04:08:59;;;;;;;;;15.00;13.00;;;;;13.09;46.87;97002.31;6198030;28;125371;-60
2021/01/23 04:12:01;;;;;;;;;14.00;13.80;;;;;13.25;46.78;96995.69;6184245;28;126839;-59
2021/01/23 04:15:03;;;;;;;;;15.00;11.60;;;;;12.90;47.39;96991.34;6188135;28;125617;-59
2021/01/23 04:18:05;;;;;;;;;13.00;12.00;;;;;12.94;47.46;97002.44;6208767;28;126557;-59
2021/01/23 04:21:06;;;;;;;;;11.75;11.75;;;;;13.07;47.32;96998.28;6208400;28;126696;-60
2021/01/23 04:24:08;;;;;;;;;12.00;12.00;;;;;13.00;47.44;96990.47;6208223;28;127814;-60
2021/01/23 04:27:10;;;;;;;;;13.00;11.20;;;;;13.10;47.20;96978.75;6208568;28;127244;-60
2021/01/23 04:30:15;;;;;;;;;13.40;12.60;;;;;12.99;47.49;96975.34;6207741;28;126900;-59
2021/01/23 04:33:16;;;;;;;;;13.00;10.00;;;;;12.99;47.59;96981.56;6207451;28;124961;-59
2021/01/23 04:36:18;;;;;;;;;13.00;12.40;;;;;13.14;47.21;96980.66;6207392;28;125476;-60
2021/01/23 04:39:20;;;;;;;;;12.00;11.00;;;;;13.21;47.00;96981.13;6208286;28;125328;-60
2021/01/23 04:42:21;;;;;;;;;15.00;14.00;;;;;13.28;46.34;96959.97;6208288;28;125599;-59
2021/01/23 04:45:23;;;;;;;;;14.00;12.00;;;;;13.21;45.89;96926.22;6207693;28;125147;-60
2021/01/23 04:48:24;;;;;;;;;13.00;13.00;;;;;13.63;45.74;96991.28;6208104;28;127881;-60
2021/01/23 04:51:26;;;;;;;;;12.40;12.00;;;;;13.71;45.54;96987.94;6209402;28;125157;-60
2021/01/23 04:54:28;;;;;;;;;13.00;12.25;;;;;13.28;45.75;96923.97;6207999;28;126348;-60
2021/01/23 04:57:29;;;;;;;;;12.40;11.60;;;;;13.69;45.22;96973.06;6207286;28;126411;-60
2021/01/23 05:00:31;;;;;;;;;14.20;13.00;;;;;13.67;45.41;96981.50;6206755;28;126874;-60
2021/01/23 05:03:56;;;;;;;;;11.60;11.60;;;;;13.70;45.22;96977.38;6206865;28;125543;-60
2021/01/23 05:06:58;;;;;;;;;15.40;13.40;;;;;13.67;44.76;96959.81;6207305;28;125063;-60
2021/01/23 05:10:28;;;;;;;;;16.75;15.00;;;;;13.59;45.09;96955.03;6184737;28;125182;-60
2021/01/23 05:13:30;;;;;;;;;16.00;15.00;;;;;13.52;45.09;96970.00;6183387;28;126225;-60
2021/01/23 05:16:32;;;;;;;;;15.00;14.60;;;;;13.40;45.27;96952.25;6192559;28;124405;-59
2021/01/23 05:19:41;;;;;;;;;14.00;13.00;;;;;13.48;45.67;96939.19;6207261;28;125386;-59
2021/01/23 05:22:51;;;;;;;;;14.00;13.00;;;;;13.54;45.59;96948.84;6207995;28;124362;-59
2021/01/23 05:25:57;;;;;;;;;15.00;13.60;;;;;13.60;45.51;96956.66;6208135;28;127378;-59
2021/01/23 05:29:09;;;;;;;;;15.00;14.60;;;;;13.57;45.15;96959.13;6206725;28;126826;-60
2021/01/23 05:32:19;;;;;;;;;14.40;14.00;;;;;13.49;44.94;96957.84;6194724;28;126665;-59
2021/01/23 05:35:21;;;;;;;;;16.60;15.00;;;;;13.39;44.84;96955.25;6182829;28;126344;-60
2021/01/23 05:38:29;;;;;;;;;16.00;15.00;;;;;13.15;45.09;96938.16;6187145;28;126639;-60
2021/01/23 05:41:31;;;;;;;;;13.60;13.40;;;;;13.05;45.25;96922.81;6187859;28;124719;-60
2021/01/23 05:51:24;;;;;;;;;13.60;13.40;;;;;13.33;46.19;96943.69;6188280;28;96483;-59
2021/01/23 05:54:25;;;;;;;;;13.00;11.40;;;;;13.40;46.29;96949.53;6187259;28;126221;-59
2021/01/23 05:57:28;;;;;;;;;11.80;11.00;;;;;13.40;46.25;96949.53;6208639;28;126559;-59
2021/01/23 06:00:30;;;;;;;;;12.80;11.80;;;;;13.40;45.81;96941.44;6199957;28;126928;-59
2021/01/23 06:03:41;;;;;;;;;18.00;16.00;;;;;13.40;45.55;96948.72;6201141;28;126714;-60
2021/01/23 06:06:44;;;;;;;;;14.20;14.00;;;;;13.39;45.38;96939.81;6211906;28;124654;-59
2021/01/23 06:09:46;;;;;;;;;16.00;14.00;;;;;13.35;45.63;96937.97;6204972;28;126244;-59
2021/01/23 06:12:51;;;;;;;;;14.00;12.40;;;;;12.00;45.73;96745.09;6207957;28;127456;-59
2021/01/23 06:15:52;;;;;;;;;16.00;15.60;;;;;13.15;45.50;96930.03;6199793;28;125658;-59
2021/01/23 06:18:54;;;;;;;;;17.00;16.00;;;;;13.01;45.46;96933.41;6215814;28;126510;-59
2021/01/23 06:21:55;;;;;;;;;16.00;15.00;;;;;12.97;46.10;96932.34;6206062;28;125671;-58
2021/01/23 06:24:57;;;;;;;;;17.00;17.00;;;;;12.95;45.70;96936.44;6208235;28;126281;-59
2021/01/23 06:27:59;;;;;;;;;18.60;17.00;;;;;12.92;45.67;96945.91;6208285;28;126723;-58
2021/01/23 06:31:23;;;;;;;;;18.80;17.00;;;;;12.88;45.86;96950.28;6210567;28;125186;-59
2021/01/23 06:34:26;;;;;;;;;20.00;18.40;;;;;12.84;46.22;96949.25;6208267;28;124743;-59
2021/01/23 06:37:37;;;;;;;;;19.00;18.00;;;;;12.20;46.32;96854.06;6204480;28;126972;-58
2021/01/23 06:40:38;;;;;;;;;21.00;18.25;;;;;12.68;46.66;96909.09;6206909;28;124836;-59
2021/01/23 06:44:06;;;;;;;;;23.60;20.40;;;;;12.98;46.18;96957.50;6208158;28;125554;-58
2021/01/23 06:47:07;;;;;;;;;20.80;19.80;;;;;12.93;46.02;96950.25;6208472;28;127013;-59
2021/01/23 06:50:09;;;;;;;;;17.50;16.50;;;;;12.86;46.28;96943.53;6192130;28;127865;-59
2021/01/23 06:53:22;;;;;;;;;19.00;18.00;;;;;12.83;46.37;96954.94;6201475;28;125618;-58
2021/01/23 06:56:23;;;;;;;;;18.80;17.00;;;;;12.80;46.74;96952.78;6210566;28;126206;-59
2021/01/23 06:59:28;;;;;;;;;20.00;18.00;;;;;12.81;46.97;96952.50;6208255;28;126854;-59
2021/01/23 07:02:30;;;;;;;;;21.00;20.40;;;;;12.85;46.78;96942.72;6209334;28;125095;-58
2021/01/23 07:05:31;;;;;;;;;22.20;19.20;;;;;12.87;47.01;96942.44;6208557;28;127599;-59
2021/01/23 07:08:36;;;;;;;;;21.00;18.60;;;;;12.88;46.76;96949.47;6177120;28;126763;-58
2021/01/23 07:11:39;;;;;;;;;21.75;19.50;;;;;12.86;46.86;96946.22;6208906;28;124912;-58
2021/01/23 07:14:43;;;;;;;;;20.80;18.80;;;;;12.86;46.80;96946.22;6209581;28;127564;-59
2021/01/23 07:17:45;;;;;;;;;22.60;20.60;;;;;12.79;46.96;96932.25;6207348;28;125094;-58
2021/01/23 07:20:49;;;;;;;;;19.60;18.40;;;;;13.00;46.81;96950.72;6207561;28;126384;-60
2021/01/23 07:23:54;;;;;;;;;17.00;15.00;;;;;12.61;46.81;96873.47;6207756;28;127259;-60
2021/01/23 07:26:56;;;;;;;;;22.00;19.60;;;;;12.57;46.58;96868.63;6209699;28;124377;-58
2021/01/23 07:29:57;;;;;;;;;19.00;19.00;;;;;13.12;46.65;96947.66;6208054;28;127566;-59
2021/01/23 07:32:59;;;;;;;;;20.00;19.00;;;;;13.13;46.70;96937.66;6207574;28;128428;-59
2021/01/23 07:36:01;;;;;;;;;20.00;17.00;;;;;13.13;46.96;96929.53;6207971;28;127414;-59
2021/01/23 07:39:09;;;;;;;;;17.00;16.00;;;;;13.01;46.65;96913.66;6209802;28;126681;-59
2021/01/23 07:42:12;;;;;;;;;21.75;18.75;;;;;12.92;46.63;96889.13;6205507;28;128144;-59
2021/01/23 07:45:20;;;;;;;;;18.40;17.20;;;;;13.26;46.49;96926.16;6208851;28;124658;-59
2021/01/23 07:48:21;;;;;;;;;18.75;17.00;;;;;13.38;46.66;96930.09;6197836;28;126199;-59
2021/01/23 07:51:26;;;;;;;;;19.60;17.60;;;;;13.13;46.10;96878.94;6192261;28;124447;-59
2021/01/23 07:54:27;;;;;;;;;24.00;21.00;;;;;13.48;46.32;96940.00;6208168;28;127693;-59
2021/01/23 07:57:29;;;;;;;;;23.00;21.00;;;;;13.51;46.12;96925.06;6203263;28;125244;-59
2021/01/23 08:00:30;;;;;;;;;20.80;20.00;;;;;13.22;45.90;96881.81;6201244;28;124527;-58
2021/01/23 08:03:35;;;;;;;;;18.60;18.00;;;;;13.56;46.29;96916.91;6198888;28;126938;-58
2021/01/23 08:06:37;;;;;;;;;15.00;13.00;;;;;13.58;46.23;96917.44;6194367;28;128016;-59
2021/01/23 08:09:39;;;;;;;;;14.00;12.80;;;;;13.43;46.48;96911.09;6207956;28;125568;-59
2021/01/23 08:12:57;;;;;;;;;12.25;11.50;;;;;13.61;46.23;96904.13;6209694;28;127153;-59
2021/01/23 08:16:13;;;;;;;;;14.60;13.60;;;;;13.58;46.04;96895.78;6206776;28;125387;-59
2021/01/23 08:19:15;;;;;;;;;10.20;9.80;;;;;13.70;46.04;96891.53;6208512;28;124940;-59
2021/01/23 08:22:18;;;;;;;;;10.00;10.00;;;;;13.71;46.15;96885.03;6205154;28;127021;-59
2021/01/23 08:25:27;;;;;;;;;12.00;10.00;;;;;13.66;45.99;96860.72;6209002;28;126041;-59
2021/01/23 08:28:37;;;;;;;;;9.80;9.00;;;;;13.75;45.90;96860.88;6206157;28;127415;-59
2021/01/23 08:31:41;;;;;;;;;12.00;11.25;;;;;13.82;45.87;96858.63;6205161;28;126900;-58
2021/01/23 08:34:44;;;;;;;;;10.00;9.25;;;;;13.88;45.73;96858.25;6209174;28;125575;-59
2021/01/23 08:37:46;;;;;;;;;9.00;9.00;;;;;14.03;45.52;96864.56;6195159;28;127576;-58
2021/01/23 08:40:47;;;;;;;;;8.20;8.00;;;;;14.29;44.86;96865.81;6209239;28;126485;-59
2021/01/23 08:43:49;;;;;;;;;13.00;12.40;;;;;14.20;44.38;96808.75;6205011;28;127789;-58
2021/01/23 08:46:50;;;;;;;;;13.20;10.80;;;;;14.86;44.17;96877.38;6206866;28;126916;-58
2021/01/23 08:49:52;;;;;;;;;14.00;13.00;;;;;15.02;43.73;96865.16;6207188;28;127595;-59
2021/01/23 08:52:53;;;;;;;;;16.00;13.80;;;;;14.89;43.13;96831.47;6207559;28;126858;-59
2021/01/23 08:55:55;;;;;;;;;15.00;14.40;;;;;15.25;43.09;96856.03;6209071;28;126741;-59
2021/01/23 08:58:56;;;;;;;;;12.20;10.60;;;;;15.42;42.27;96856.25;6206856;28;128815;-59
2021/01/23 09:01:57;;;;;;;;;10.20;8.80;;;;;15.52;41.96;96853.38;6203713;28;126373;-59
2021/01/23 09:04:59;;;;;;;;;10.60;10.00;;;;;15.43;42.31;96855.16;6206299;28;126596;-59
2021/01/23 09:08:01;;;;;;;;;13.60;12.00;;;;;15.34;42.44;96842.59;6209023;28;126510;-59
2021/01/23 09:11:02;;;;;;;;;18.00;14.00;;;;;15.59;42.06;96842.88;6205559;28;127739;-59
2021/01/23 09:14:07;;;;;;;;;17.80;13.80;;;;;15.60;41.74;96854.56;6203457;28;128329;-59
2021/01/23 09:17:08;;;;;;;;;19.00;17.00;;;;;15.30;41.79;96812.50;6210150;28;126998;-59
2021/01/23 09:20:11;;;;;;;;;16.00;14.00;;;;;15.74;41.76;96873.56;6209356;28;127524;-59
2021/01/23 09:23:12;;;;;;;;;17.75;15.00;;;;;15.70;41.73;96873.34;6205653;28;127641;-60
2021/01/23 09:26:14;;;;;;;;;14.60;13.00;;;;;15.56;41.94;96859.00;6206634;28;126564;-59
2021/01/23 09:29:16;;;;;;;;;16.20;13.20;;;;;15.64;41.88;96865.63;6206275;28;128365;-59
2021/01/23 09:32:18;;;;;;;;;13.00;13.00;;;;;15.91;41.38;96871.03;6206774;28;126579;-59
2021/01/23 09:35:20;;;;;;;;;15.00;15.00;;;;;15.91;41.22;96873.75;6209211;28;127687;-59
2021/01/23 09:38:21;;;;;;;;;15.50;14.75;;;;;15.94;40.86;96857.63;6208835;28;127631;-60
2021/01/23 09:41:23;;;;;;;;;15.00;14.00;;;;;16.07;40.81;96866.88;6195189;28;126424;-59
2021/01/23 09:44:25;;;;;;;;;18.00;16.60;;;;;16.07;40.80;96866.88;6204178;28;126455;-60
2021/01/23 09:47:26;;;;;;;;;18.60;17.60;;;;;16.28;40.53;96883.50;6205090;28;127000;-59
2021/01/23 09:50:28;;;;;;;;;18.00;17.67;;;;;16.36;40.44;96875.44;6210334;28;127293;-60
2021/01/23 09:53:29;;;;;;;;;19.40;17.40;;;;;16.36;40.31;96877.34;6194708;28;126425;-59
2021/01/23 09:56:31;;;;;;;;;18.00;16.60;;;;;16.25;40.78;96876.78;6210097;28;126857;-58
2021/01/23 09:59:32;;;;;;;;;19.20;17.20;;;;;15.94;41.34;96873.94;6192527;28;128103;-59
2021/01/23 10:02:35;;;;;;;;;20.00;19.00;;;;;15.84;41.70;96879.56;6199837;28;126271;-59
2021/01/23 10:05:36;;;;;;;;;18.00;17.00;;;;;15.80;41.78;96883.22;6194611;28;127156;-59
2021/01/23 10:08:38;;;;;;;;;18.00;16.75;;;;;15.78;41.95;96880.81;6208912;28;127510;-59
2021/01/23 10:11:39;;;;;;;;;20.00;19.00;;;;;15.55;41.64;96839.16;6205689;28;126534;-59
2021/01/23 10:14:41;;;;;;;;;19.00;17.25;;;;;16.12;41.48;96890.41;6201480;28;128354;-59
2021/01/23 10:17:42;;;;;;;;;19.00;17.00;;;;;16.11;41.46;96880.66;6206079;28;127374;-59
2021/01/23 10:20:44;;;;;;;;;20.00;18.00;;;;;16.17;41.36;96877.53;6206938;28;126581;-59
2021/01/23 10:23:45;;;;;;;;;17.20;16.00;;;;;16.51;41.06;96873.47;6208158;28;128021;-58
2021/01/23 10:26:46;;;;;;;;;21.60;20.60;;;;;17.12;40.54;96891.81;6208511;28;126512;-59
2021/01/23 10:29:49;;;;;;;;;20.00;19.00;;;;;17.49;39.86;96898.75;6209429;28;127413;-59
2021/01/23 10:32:50;;;;;;;;;19.00;18.40;;;;;17.70;39.16;96897.09;6205441;28;127755;-59
2021/01/23 10:35:52;;;;;;;;;16.00;16.00;;;;;17.97;38.73;96885.16;6209555;28;125344;-60
2021/01/23 10:38:53;;;;;;;;;16.00;16.00;;;;;18.08;37.66;96875.56;6210390;28;126593;-59
2021/01/23 10:41:55;;;;;;;;;20.00;18.80;;;;;18.28;37.71;96882.28;6209444;28;126985;-60
2021/01/23 10:44:57;;;;;;;;;21.00;19.00;;;;;18.43;37.71;96881.81;6211552;28;126256;-60
2021/01/23 10:47:59;;;;;;;;;15.20;15.00;;;;;18.47;37.46;96882.81;6209625;28;127168;-59
2021/01/23 10:51:01;;;;;;;;;19.60;17.00;;;;;18.57;37.35;96886.00;6192214;28;125223;-59
2021/01/23 10:54:02;;;;;;;;;18.40;17.40;;;;;18.73;37.06;96871.88;6209876;28;128178;-59
2021/01/23 10:57:05;;;;;;;;;18.33;17.00;;;;;18.92;37.12;96837.66;6202129;28;127441;-58
2021/01/23 11:00:08;;;;;;;;;18.00;17.00;;;;;19.41;35.82;96871.72;6209561;28;125206;-59
2021/01/23 11:03:10;;;;;;;;;17.50;15.75;;;;;19.48;35.05;96863.03;6203605;28;127160;-59
2021/01/23 11:06:11;;;;;;;;;19.60;18.00;;;;;20.01;34.62;96869.84;6207625;28;124238;-60
2021/01/23 11:09:13;;;;;;;;;16.00;15.60;;;;;20.07;34.47;96874.00;6210478;28;125064;-61
2021/01/23 11:12:14;;;;;;;;;15.00;14.00;;;;;20.03;34.37;96878.53;6211384;28;125773;-59
2021/01/23 11:15:17;;;;;;;;;18.00;17.00;;;;;20.01;34.21;96872.56;6208276;28;124895;-60
2021/01/23 11:18:18;;;;;;;;;21.00;17.00;;;;;19.75;34.09;96850.84;6210901;28;127559;-60
2021/01/23 11:21:20;;;;;;;;;16.25;15.00;;;;;19.94;34.41;96861.38;6203596;28;128570;-59
2021/01/23 11:24:21;;;;;;;;;16.80;15.40;;;;;19.85;34.26;96856.75;6210162;28;126616;-59
2021/01/23 11:27:23;;;;;;;;;17.00;15.00;;;;;19.73;34.56;96853.94;6207886;28;126402;-60
2021/01/23 11:30:25;;;;;;;;;17.00;14.60;;;;;19.58;34.46;96850.94;6206392;28;125388;-60
2021/01/23 11:33:26;;;;;;;;;16.00;14.00;;;;;19.49;34.98;96853.72;6201092;28;126767;-60
2021/01/23 11:36:30;;;;;;;;;16.00;15.00;;;;;19.25;34.94;96848.81;6203462;28;128133;-60
2021/01/23 11:39:32;;;;;;;;;14.20;14.00;;;;;19.19;35.60;96857.50;6188837;28;126227;-59
2021/01/23 11:42:34;;;;;;;;;14.60;13.60;;;;;18.91;35.37;96835.25;6201651;28;126695;-60
2021/01/23 11:45:35;;;;;;;;;17.00;15.00;;;;;18.88;35.88;96844.88;6202331;28;127580;-59
2021/01/23 11:48:37;;;;;;;;;14.00;13.00;;;;;18.79;35.71;96833.19;6199181;28;125104;-59
2021/01/23 11:51:38;;;;;;;;;15.80;15.00;;;;;18.72;35.94;96841.06;6209932;28;127661;-60
2021/01/23 11:54:41;;;;;;;;;13.40;12.20;;;;;18.61;36.33;96837.06;6200706;28;97638;-60
2021/01/23 11:57:43;;;;;;;;;16.00;14.00;;;;;18.43;36.53;96824.53;6209520;28;127847;-59
2021/01/23 12:00:44;;;;;;;;;15.00;14.00;;;;;18.26;37.07;96821.81;6203821;28;124556;-59
2021/01/23 12:03:46;;;;;;;;;14.75;13.75;;;;;18.32;36.98;96831.44;6208476;28;126594;-59
2021/01/23 12:06:47;;;;;;;;;16.40;15.40;;;;;18.18;36.94;96829.66;6209692;28;125774;-59
2021/01/23 12:09:48;;;;;;;;;17.00;16.00;;;;;18.15;36.94;96827.59;6201418;28;126658;-59
2021/01/23 12:12:50;;;;;;;;;17.40;15.40;;;;;18.13;38.22;96827.09;6194872;28;129232;-59
2021/01/23 12:15:51;;;;;;;;;17.40;16.40;;;;;18.09;37.89;96798.06;6202309;28;127691;-60
2021/01/23 12:18:53;;;;;;;;;16.00;15.20;;;;;18.45;38.11;96786.81;6183858;28;126498;-59
2021/01/23 12:21:54;;;;;;;;;16.00;15.60;;;;;18.63;37.01;96785.69;6203888;28;127482;-59
2021/01/23 12:24:57;;;;;;;;;15.20;12.20;;;;;18.96;35.25;96802.31;6206776;28;126374;-59
2021/01/23 12:27:59;;;;;;;;;15.00;14.00;;;;;19.02;35.40;96812.72;6204443;28;127988;-59
2021/01/23 12:31:00;;;;;;;;;13.40;13.00;;;;;19.29;35.16;96810.72;6205062;28;127911;-60
2021/01/23 12:34:02;;;;;;;;;15.00;12.60;;;;;19.29;34.42;96788.84;6199068;28;127364;-60
2021/01/23 12:37:03;;;;;;;;;12.80;12.80;;;;;19.68;34.37;96826.78;6196239;28;125090;-59
2021/01/23 12:40:06;;;;;;;;;13.00;13.00;;;;;19.67;34.32;96827.91;6207501;28;125229;-59
2021/01/23 12:43:09;;;;;;;;;13.00;12.00;;;;;19.62;33.90;96822.63;6206169;28;127283;-59
2021/01/23 12:46:10;;;;;;;;;11.33;10.33;;;;;19.53;34.30;96816.41;6205255;28;127577;-61
2021/01/23 12:49:12;;;;;;;;;13.00;12.00;;;;;19.45;34.06;96818.03;6182840;28;125312;-60
2021/01/23 12:52:14;;;;;;;;;15.00;11.00;;;;;19.36;33.94;96822.72;6200123;28;126091;-59
2021/01/23 12:55:16;;;;;;;;;11.00;10.00;;;;;19.20;33.92;96827.13;6201853;28;125420;-59
2021/01/23 12:58:19;;;;;;;;;11.00;11.00;;;;;19.17;34.26;96810.59;6205678;28;124874;-60
2021/01/23 13:01:20;;;;;;;;;13.00;12.00;;;;;19.12;34.57;96810.75;6193931;28;125001;-60
2021/01/23 13:04:22;;;;;;;;;9.60;9.00;;;;;19.05;34.13;96794.91;6206030;28;125308;-59
2021/01/23 13:07:24;;;;;;;;;6.00;6.00;;;;;19.11;33.92;96798.25;6206457;28;126609;-59
2021/01/23 13:10:26;;;;;;;;;9.00;9.00;;;;;19.06;34.03;96788.28;6206963;28;127650;-59
2021/01/23 13:13:27;;;;;;;;;10.00;9.80;;;;;18.96;34.65;96778.53;6207872;28;125569;-59
2021/01/23 13:16:29;;;;;;;;;12.00;10.00;;;;;18.77;34.57;96797.22;6206079;28;126166;-60
2021/01/23 13:19:30;;;;;;;;;12.00;10.80;;;;;18.86;34.83;96791.75;6209107;28;127192;-59
2021/01/23 13:22:32;;;;;;;;;11.00;10.00;;;;;18.42;34.85;96733.69;6188439;28;126974;-59
2021/01/23 13:25:34;;;;;;;;;10.50;9.00;;;;;18.67;34.91;96781.19;6203025;28;126352;-59
2021/01/23 13:28:36;;;;;;;;;10.00;9.00;;;;;18.38;34.94;96759.22;6198673;28;126260;-59
2021/01/23 13:31:38;;;;;;;;;10.00;9.33;;;;;18.52;34.46;96778.97;6206078;28;127316;-59
2021/01/23 13:34:40;;;;;;;;;11.20;10.20;;;;;17.96;35.64;96777.22;6204425;28;126746;-61
2021/01/23 13:37:41;;;;;;;;;14.00;10.00;;;;;18.24;35.45;96777.69;6202655;28;127782;-59
2021/01/23 13:40:44;;;;;;;;;9.60;9.60;;;;;18.05;35.61;96772.56;6208298;28;127321;-60
2021/01/23 13:43:46;;;;;;;;;10.00;9.25;;;;;18.00;35.38;96724.44;6203367;28;126766;-60
2021/01/23 13:46:47;;;;;;;;;10.50;10.50;;;;;18.29;35.62;96756.50;6188247;28;126568;-59
2021/01/23 13:49:50;;;;;;;;;12.00;10.40;;;;;18.31;35.19;96761.66;6206352;28;125314;-60
2021/01/23 13:52:51;;;;;;;;;15.60;11.00;;;;;18.45;35.24;96751.34;6206000;28;125295;-59
2021/01/23 13:55:52;;;;;;;;;9.00;8.20;;;;;18.46;34.85;96756.50;6206120;28;127060;-59
2021/01/23 13:58:54;;;;;;;;;6.60;6.60;;;;;18.22;34.66;96749.94;6207006;28;127472;-59
2021/01/23 14:01:55;;;;;;;;;7.00;7.00;;;;;18.21;34.41;96751.88;6205549;28;127606;-60
2021/01/23 14:04:57;;;;;;;;;7.00;6.00;;;;;17.89;34.85;96708.72;6193386;28;125179;-59